Weather at Newquay Cornwall Airport

Public forecast

Using degrees Celsius for public forecast. Weather courtesy of forecast.io.

Current aviation weather report (METAR) for Newquay Cornwall Airport

Report is more than 6 hours old.

2022/11/14 15:20 (retrieved 2 years ago)

EGHQ 141520Z 18012KT 9999 FEW025 12/06 Q1006

Closest aviation forecast (TAF) to Newquay Cornwall Airport

Forecast is more than 12 hours old.

Closest forecast is Cardiff International Airport, 84.9 nm (157.2 km) NE.

2023/02/22 18:00 (retrieved 1 year ago)

TAF EGFF 221653Z 2218/2318 30012KT 9999 SCT033 PROB30 TEMPO 2218/2220 6000 SHRA BKN013 BECMG 2220/2223 01010KT PROB30 TEMPO 2301/2307 8000 RA SHRA BKN012